Time;durP1;ratioP1;P1;durP2;ratioP2;P2;SDS_P1;SDS_P2;PMS_P1;PMS_P2;Temp;Humidity;BMP_temperature;BMP_pressure;BME280_temperature;BME280_humidity;BME280_pressure;Samples;Min_cycle;Max_cycle;Signal;HPM_P1;HPM_P2
2022/03/05 00:02:04;;;;;;;35.30;17.05;;;-2.30;99.90;;;;;;6126332;23;20072;-83
2022/03/05 00:04:30;;;;;;;36.75;17.25;;;-2.20;99.90;;;;;;6150634;23;20018;-85
2022/03/05 00:06:55;;;;;;;46.40;19.23;;;-2.20;99.90;;;;;;6079393;23;20392;-83
2022/03/05 00:09:21;;;;;;;34.42;15.30;;;-2.20;99.90;;;;;;6126744;23;20025;-84
2022/03/05 00:11:47;;;;;;;33.28;14.48;;;-2.20;99.90;;;;;;6127701;23;20024;-84
2022/03/05 00:14:13;;;;;;;35.00;14.60;;;-2.20;99.90;;;;;;6103516;23;20077;-84
2022/03/05 00:16:39;;;;;;;28.17;13.38;;;-2.20;99.90;;;;;;6078841;23;20165;-83
2022/03/05 00:19:05;;;;;;;26.85;13.50;;;-2.30;99.90;;;;;;6127175;23;20040;-84
2022/03/05 00:21:31;;;;;;;23.20;11.70;;;-2.30;99.90;;;;;;6127322;23;20021;-84
2022/03/05 00:23:56;;;;;;;26.58;13.40;;;-2.30;99.90;;;;;;6128010;23;20060;-84
2022/03/05 00:26:22;;;;;;;23.98;11.93;;;-2.30;99.90;;;;;;6151732;23;20100;-83
2022/03/05 00:28:48;;;;;;;24.20;11.38;;;-2.30;99.90;;;;;;6102615;23;20018;-83
2022/03/05 00:31:13;;;;;;;24.10;11.80;;;-2.30;99.90;;;;;;6103276;23;20024;-83
2022/03/05 00:33:39;;;;;;;27.92;12.88;;;-2.30;99.90;;;;;;6151798;23;20488;-83
2022/03/05 00:36:06;;;;;;;24.40;12.05;;;-2.30;99.90;;;;;;6103431;23;20018;-83
2022/03/05 00:38:32;;;;;;;25.55;12.82;;;-2.20;99.90;;;;;;6127089;23;20449;-84
2022/03/05 00:40:57;;;;;;;23.98;12.10;;;-2.30;99.90;;;;;;6079316;23;20052;-83
2022/03/05 00:43:23;;;;;;;25.17;12.35;;;-2.40;99.90;;;;;;6127255;23;20013;-86
2022/03/05 00:45:49;;;;;;;24.13;12.30;;;-2.40;99.90;;;;;;6103285;23;20025;-83
2022/03/05 00:48:14;;;;;;;24.58;11.32;;;-2.40;99.90;;;;;;6152301;23;20040;-84
2022/03/05 00:50:40;;;;;;;24.85;10.48;;;-2.40;99.90;;;;;;6101941;23;20017;-82
2022/03/05 00:53:06;;;;;;;21.60;10.68;;;-2.40;99.90;;;;;;6103611;23;20082;-83
2022/03/05 00:55:32;;;;;;;21.95;10.88;;;-2.40;99.90;;;;;;6126557;23;20026;-83
2022/03/05 00:57:58;;;;;;;21.38;9.95;;;-2.40;99.90;;;;;;6127294;23;20075;-83
2022/03/05 01:00:23;;;;;;;21.40;10.30;;;-2.40;99.90;;;;;;6102749;23;20058;-86
2022/03/05 01:02:49;;;;;;;22.85;10.25;;;-2.50;99.90;;;;;;6102932;23;20028;-83
2022/03/05 01:05:15;;;;;;;22.00;10.77;;;-2.50;99.90;;;;;;6127642;23;20077;-83
2022/03/05 01:07:41;;;;;;;23.45;9.70;;;-2.70;99.90;;;;;;6151228;23;20025;-84
2022/03/05 01:10:07;;;;;;;19.23;9.70;;;-2.70;99.90;;;;;;6151605;23;20100;-84
2022/03/05 01:12:34;;;;;;;20.13;10.27;;;-2.80;99.90;;;;;;6151346;23;20441;-83
2022/03/05 01:15:00;;;;;;;22.08;10.80;;;-2.90;99.90;;;;;;6127080;23;20017;-83
2022/03/05 01:17:26;;;;;;;22.70;10.90;;;-3.00;99.90;;;;;;6151416;23;20100;-85
2022/03/05 01:19:51;;;;;;;19.48;10.13;;;-3.00;99.90;;;;;;6126916;23;20021;-84
2022/03/05 01:22:17;;;;;;;21.20;10.10;;;-3.00;99.90;;;;;;6151564;23;20472;-83
2022/03/05 01:24:43;;;;;;;23.25;10.75;;;-3.00;99.90;;;;;;6151167;23;20021;-83
2022/03/05 01:27:09;;;;;;;20.98;9.45;;;-3.00;99.90;;;;;;6151509;23;20389;-84
2022/03/05 01:29:35;;;;;;;21.42;10.27;;;-2.90;99.90;;;;;;6126459;23;20341;-83
2022/03/05 01:32:00;;;;;;;22.52;10.43;;;-2.90;99.90;;;;;;6151600;23;20021;-83
2022/03/05 01:34:26;;;;;;;24.70;10.35;;;-2.90;99.90;;;;;;6102657;23;20034;-82
2022/03/05 01:36:52;;;;;;;22.52;9.15;;;-2.80;99.90;;;;;;6125769;23;20349;-83
2022/03/05 01:39:18;;;;;;;19.25;9.35;;;-2.90;99.90;;;;;;6126924;23;20070;-83
2022/03/05 01:41:48;;;;;;;21.25;9.60;;;-2.90;99.90;;;;;;6101817;23;20033;-84
2022/03/05 01:44:15;;;;;;;19.65;10.07;;;-3.00;99.90;;;;;;6126904;23;20026;-83
2022/03/05 01:46:41;;;;;;;22.45;9.07;;;-3.00;99.90;;;;;;6102011;23;20028;-83
2022/03/05 01:49:12;;;;;;;18.75;9.68;;;-3.10;99.90;;;;;;6126985;23;20013;-83
2022/03/05 01:51:39;;;;;;;21.40;10.52;;;-3.10;99.90;;;;;;6126552;23;20021;-83
2022/03/05 01:54:06;;;;;;;22.63;9.98;;;-3.20;99.90;;;;;;6102458;23;20080;-83
2022/03/05 01:56:32;;;;;;;21.70;10.48;;;-3.30;99.90;;;;;;6151099;23;20053;-85
2022/03/05 01:58:59;;;;;;;21.15;9.55;;;-3.30;99.90;;;;;;6151637;23;20375;-82
2022/03/05 02:01:27;;;;;;;18.10;8.40;;;-3.30;99.90;;;;;;6126873;23;20029;-84
2022/03/05 02:03:53;;;;;;;18.65;9.35;;;-3.40;99.90;;;;;;6125742;23;20022;-84
2022/03/05 02:06:20;;;;;;;17.88;9.15;;;-3.40;99.90;;;;;;6151605;23;20402;-85
2022/03/05 02:08:46;;;;;;;16.60;8.60;;;-3.40;99.90;;;;;;6125986;23;20057;-83
2022/03/05 02:11:12;;;;;;;14.32;7.40;;;-3.40;99.90;;;;;;6126588;23;20100;-84
2022/03/05 02:13:38;;;;;;;20.55;9.35;;;-3.50;99.90;;;;;;6125982;23;20590;-84
2022/03/05 02:16:04;;;;;;;17.58;9.70;;;-3.50;99.90;;;;;;6102067;23;20141;-84
2022/03/05 02:18:30;;;;;;;17.08;7.80;;;-3.50;99.90;;;;;;6126897;23;20022;-83
2022/03/05 02:20:56;;;;;;;18.85;8.80;;;-3.40;99.90;;;;;;6101754;23;20105;-83
2022/03/05 02:23:22;;;;;;;18.20;8.73;;;-3.40;99.90;;;;;;6127005;23;20039;-84
2022/03/05 02:25:53;;;;;;;18.30;9.48;;;-3.40;99.90;;;;;;6150302;23;20076;-84
2022/03/05 02:28:20;;;;;;;18.42;8.27;;;-3.30;99.90;;;;;;6102147;23;20017;-84
2022/03/05 02:30:46;;;;;;;16.63;8.50;;;-3.40;99.90;;;;;;6124044;23;20024;-83
2022/03/05 02:33:12;;;;;;;15.98;8.02;;;-3.30;99.90;;;;;;6125777;23;20021;-83
2022/03/05 02:35:37;;;;;;;18.17;8.07;;;-3.30;99.90;;;;;;6100235;23;20029;-84
2022/03/05 02:38:03;;;;;;;15.80;8.52;;;-3.30;99.90;;;;;;6125661;23;20025;-83
2022/03/05 02:40:29;;;;;;;15.10;7.60;;;-3.20;99.90;;;;;;6101560;23;20017;-83
2022/03/05 02:42:54;;;;;;;17.67;7.65;;;-3.30;99.90;;;;;;6125521;23;20105;-83
2022/03/05 02:45:20;;;;;;;17.80;8.27;;;-3.30;99.90;;;;;;6125886;23;20021;-83
2022/03/05 02:47:46;;;;;;;18.58;8.32;;;-3.30;99.90;;;;;;6124621;23;20052;-83
2022/03/05 02:50:12;;;;;;;17.10;7.93;;;-3.30;99.90;;;;;;6125134;23;20018;-82
2022/03/05 02:52:41;;;;;;;16.42;7.93;;;-3.30;99.90;;;;;;6124876;23;20026;-86
2022/03/05 02:55:07;;;;;;;17.25;8.77;;;-3.20;99.90;;;;;;6150235;23;20053;-83
2022/03/05 02:57:33;;;;;;;21.52;8.80;;;-3.20;99.90;;;;;;6101259;23;20018;-82
2022/03/05 02:59:58;;;;;;;18.88;8.73;;;-3.20;99.90;;;;;;6124917;23;20129;-83
2022/03/05 03:02:24;;;;;;;18.38;8.70;;;-3.20;99.90;;;;;;6125319;23;20021;-83
2022/03/05 03:04:50;;;;;;;16.20;8.65;;;-3.20;99.90;;;;;;6149545;23;20017;-82
2022/03/05 03:07:16;;;;;;;18.48;8.77;;;-3.20;99.90;;;;;;6101217;23;20028;-83
2022/03/05 03:09:42;;;;;;;32.55;12.60;;;-3.20;99.90;;;;;;6100232;23;20021;-83
2022/03/05 03:12:08;;;;;;;19.00;8.95;;;-3.20;99.90;;;;;;6077255;23;20457;-83
2022/03/05 03:14:34;;;;;;;16.40;8.55;;;-3.20;99.90;;;;;;6125532;23;20456;-83
2022/03/05 03:17:00;;;;;;;17.80;8.63;;;-3.20;99.90;;;;;;6100294;23;20021;-83
2022/03/05 03:19:25;;;;;;;20.85;8.65;;;-3.20;99.90;;;;;;6149914;23;20026;-83
2022/03/05 03:21:51;;;;;;;18.67;8.80;;;-3.20;99.90;;;;;;6100725;23;20072;-84
2022/03/05 03:24:17;;;;;;;17.17;8.32;;;-3.20;99.90;;;;;;6125895;23;20029;-83
2022/03/05 03:26:45;;;;;;;16.10;8.50;;;-3.10;99.90;;;;;;6123541;23;20076;-85
2022/03/05 03:29:10;;;;;;;18.80;8.40;;;-3.10;99.90;;;;;;6124774;23;20076;-83
2022/03/05 03:31:36;;;;;;;21.88;8.80;;;-3.10;99.90;;;;;;6100311;23;20017;-84
2022/03/05 03:34:02;;;;;;;19.20;8.68;;;-3.10;99.90;;;;;;6099609;23;20100;-84
2022/03/05 03:36:28;;;;;;;21.38;9.63;;;-3.10;99.90;;;;;;6124685;23;20028;-84
2022/03/05 03:38:53;;;;;;;18.90;8.38;;;-3.10;99.90;;;;;;6124719;23;20060;-83
2022/03/05 03:41:19;;;;;;;19.98;9.00;;;-3.10;99.90;;;;;;6126409;23;20025;-84
2022/03/05 03:43:45;;;;;;;18.48;8.00;;;-3.10;99.90;;;;;;6150696;23;20048;-83
2022/03/05 03:46:11;;;;;;;20.70;9.82;;;-3.10;99.90;;;;;;6102560;23;20100;-83
2022/03/05 03:48:36;;;;;;;16.88;8.60;;;-3.00;99.90;;;;;;6126410;23;20018;-84
2022/03/05 03:51:02;;;;;;;19.65;8.98;;;-3.00;99.90;;;;;;6101433;23;20018;-83
2022/03/05 03:53:28;;;;;;;20.63;9.02;;;-2.90;99.90;;;;;;6126646;23;20021;-83
2022/03/05 03:55:54;;;;;;;20.58;8.95;;;-2.90;99.90;;;;;;6150417;23;20024;-83
2022/03/05 03:58:20;;;;;;;16.25;8.15;;;-2.90;99.90;;;;;;6150818;23;20049;-83
2022/03/05 04:00:45;;;;;;;17.40;7.97;;;-2.90;99.90;;;;;;6125629;23;20024;-82
2022/03/05 04:03:11;;;;;;;19.67;8.68;;;-2.90;99.90;;;;;;6102448;23;20021;-84
2022/03/05 04:05:37;;;;;;;17.42;8.48;;;-2.90;99.90;;;;;;6102117;23;20018;-83
2022/03/05 04:10:47;;;;;;;19.02;8.18;;;-3.00;99.90;;;;;;6150287;23;20393;-82
2022/03/05 04:13:12;;;;;;;18.55;8.90;;;-3.00;99.90;;;;;;6102486;23;20025;-84
2022/03/05 04:15:39;;;;;;;23.45;10.50;;;-3.20;99.90;;;;;;6126383;23;20918;-84
2022/03/05 04:18:06;;;;;;;18.13;8.82;;;-3.20;99.90;;;;;;6101436;23;20072;-83
2022/03/05 04:20:32;;;;;;;18.58;8.48;;;-3.30;99.90;;;;;;6101899;23;20029;-84
2022/03/05 04:22:59;;;;;;;20.63;9.38;;;-3.30;99.90;;;;;;6125766;23;20025;-83
2022/03/05 04:25:25;;;;;;;18.10;8.75;;;-3.30;99.90;;;;;;6151077;23;20032;-83
2022/03/05 04:27:51;;;;;;;17.60;8.18;;;-3.30;99.90;;;;;;6125471;23;20060;-84
2022/03/05 04:30:18;;;;;;;18.77;8.38;;;-3.30;99.90;;;;;;6078320;23;20013;-83
2022/03/05 04:32:43;;;;;;;19.73;9.40;;;-3.30;99.90;;;;;;6125792;23;20100;-84
2022/03/05 04:35:09;;;;;;;20.48;8.60;;;-3.30;99.90;;;;;;6101699;23;20060;-83
2022/03/05 04:37:35;;;;;;;18.60;8.57;;;-3.30;99.90;;;;;;6126003;23;20352;-84
2022/03/05 04:40:02;;;;;;;18.58;9.38;;;-3.40;99.90;;;;;;6125561;23;20018;-84
2022/03/05 04:42:27;;;;;;;18.90;8.50;;;-3.40;99.90;;;;;;6101794;23;20017;-83
2022/03/05 04:44:55;;;;;;;17.98;8.35;;;-3.50;99.90;;;;;;6125564;23;20514;-84
2022/03/05 04:47:21;;;;;;;18.63;8.80;;;-3.50;99.90;;;;;;6126194;23;20033;-84
2022/03/05 04:49:47;;;;;;;20.73;9.23;;;-3.50;99.90;;;;;;6124981;23;20063;-84
2022/03/05 04:52:13;;;;;;;18.60;9.35;;;-3.60;99.90;;;;;;6101562;23;20116;-83
2022/03/05 04:54:39;;;;;;;18.42;8.93;;;-3.70;99.90;;;;;;6101944;23;20053;-84
2022/03/05 04:57:04;;;;;;;17.42;8.48;;;-3.60;99.90;;;;;;6101129;23;20181;-83
2022/03/05 04:59:30;;;;;;;19.17;8.52;;;-3.60;99.90;;;;;;6150146;23;20025;-84
2022/03/05 05:01:58;;;;;;;19.20;9.70;;;-3.60;99.90;;;;;;6100819;23;20025;-83
2022/03/05 05:04:25;;;;;;;18.75;9.50;;;-3.60;99.90;;;;;;6102015;23;20068;-83
2022/03/05 05:06:51;;;;;;;22.10;9.70;;;-3.70;99.90;;;;;;6100827;23;20033;-84
2022/03/05 05:09:17;;;;;;;18.33;9.10;;;-3.70;99.90;;;;;;6150399;23;20013;-83
2022/03/05 05:11:42;;;;;;;15.95;8.50;;;-3.80;99.90;;;;;;6101218;23;20052;-83
2022/03/05 05:14:09;;;;;;;16.90;8.45;;;-3.80;99.90;;;;;;6124384;23;20021;-83
2022/03/05 05:16:34;;;;;;;18.52;8.57;;;-3.90;99.90;;;;;;6149686;23;20020;-83
2022/03/05 05:21:44;;;;;;;17.75;8.20;;;-4.00;99.90;;;;;;6108755;23;20454;-83
2022/03/05 05:24:10;;;;;;;19.00;8.95;;;-4.00;99.90;;;;;;6125150;23;20014;-83
2022/03/05 05:26:36;;;;;;;21.83;10.00;;;-4.00;99.90;;;;;;6101405;23;20025;-83
2022/03/05 05:29:02;;;;;;;19.08;8.82;;;-4.00;99.90;;;;;;6124892;23;20025;-83
2022/03/05 05:31:27;;;;;;;20.15;9.02;;;-3.90;99.90;;;;;;6125708;23;20021;-83
2022/03/05 05:33:53;;;;;;;19.75;10.05;;;-3.90;99.90;;;;;;6100447;23;20341;-82
2022/03/05 05:36:20;;;;;;;15.57;9.00;;;-3.80;99.90;;;;;;6101316;23;20373;-82
2022/03/05 05:38:45;;;;;;;21.90;9.32;;;-3.80;99.90;;;;;;6101181;23;20021;-83
2022/03/05 05:41:12;;;;;;;18.50;9.65;;;-3.80;99.90;;;;;;6100922;23;20018;-82
2022/03/05 05:43:38;;;;;;;19.15;9.35;;;-3.70;99.90;;;;;;6101294;23;20212;-82
2022/03/05 05:46:04;;;;;;;19.33;9.10;;;-3.70;99.90;;;;;;6149485;23;20029;-84
2022/03/05 05:48:29;;;;;;;18.50;9.65;;;-3.70;99.90;;;;;;6100812;23;20017;-83
2022/03/05 05:50:55;;;;;;;17.20;8.73;;;-3.70;99.90;;;;;;6124901;23;20080;-83
2022/03/05 05:53:22;;;;;;;16.08;8.45;;;-3.70;99.90;;;;;;6149933;23;20028;-83
2022/03/05 05:55:48;;;;;;;20.00;9.52;;;-3.80;99.90;;;;;;6125527;23;20020;-83
2022/03/05 05:58:13;;;;;;;22.17;8.88;;;-3.70;99.90;;;;;;6149659;23;20096;-83
2022/03/05 06:00:39;;;;;;;19.02;9.00;;;-3.60;99.90;;;;;;6101140;23;20020;-84
2022/03/05 06:03:04;;;;;;;17.83;9.02;;;-3.50;99.90;;;;;;6100333;23;20075;-83
2022/03/05 06:05:31;;;;;;;21.77;10.63;;;-3.40;99.90;;;;;;6101118;23;20441;-83
2022/03/05 06:07:57;;;;;;;15.10;8.30;;;-3.40;99.90;;;;;;6124918;23;20013;-83
2022/03/05 06:10:22;;;;;;;17.90;9.35;;;-3.30;99.90;;;;;;6100744;23;20051;-83
2022/03/05 06:12:49;;;;;;;27.13;13.20;;;-3.30;99.90;;;;;;6125556;23;20022;-83
2022/03/05 06:15:15;;;;;;;17.73;9.75;;;-3.20;99.90;;;;;;6124532;23;20022;-82
2022/03/05 06:17:42;;;;;;;19.65;9.48;;;-3.20;99.90;;;;;;6149456;23;20025;-83
2022/03/05 06:20:08;;;;;;;20.35;8.82;;;-3.10;99.90;;;;;;6124770;23;20318;-82
2022/03/05 06:22:34;;;;;;;19.05;9.98;;;-3.10;99.90;;;;;;6125313;23;20060;-83
2022/03/05 06:25:00;;;;;;;21.13;9.15;;;-3.10;99.90;;;;;;6100233;23;20025;-83
2022/03/05 06:27:26;;;;;;;15.75;9.13;;;-3.00;99.90;;;;;;6125323;23;20104;-83
2022/03/05 06:29:51;;;;;;;21.17;9.55;;;-3.10;99.90;;;;;;6125216;23;20104;-84
2022/03/05 06:32:17;;;;;;;27.58;12.45;;;-3.00;99.90;;;;;;6100049;23;20053;-84
2022/03/05 06:34:42;;;;;;;29.70;13.88;;;-3.00;99.90;;;;;;6100661;23;20024;-83
2022/03/05 06:37:08;;;;;;;19.27;10.10;;;-3.00;99.90;;;;;;6124374;23;20092;-83
2022/03/05 06:39:34;;;;;;;19.70;10.05;;;-3.00;99.90;;;;;;6100455;23;20109;-83
2022/03/05 06:42:00;;;;;;;19.52;9.45;;;-2.90;99.90;;;;;;6124614;23;20021;-83
2022/03/05 06:44:25;;;;;;;17.48;9.63;;;-3.00;99.90;;;;;;6100779;23;20064;-84
2022/03/05 06:46:51;;;;;;;17.45;9.60;;;-2.90;99.90;;;;;;6125195;23;20021;-82
2022/03/05 06:49:17;;;;;;;21.05;9.57;;;-2.90;99.90;;;;;;6124497;23;20045;-83
2022/03/05 06:51:42;;;;;;;21.42;10.38;;;-2.90;99.90;;;;;;6124978;23;20495;-83
2022/03/05 06:54:08;;;;;;;21.23;10.25;;;-2.90;99.90;;;;;;6124195;23;20036;-83
2022/03/05 06:56:34;;;;;;;17.17;9.77;;;-2.90;99.90;;;;;;6149102;23;20029;-84
2022/03/05 06:58:59;;;;;;;20.23;10.77;;;-2.80;99.90;;;;;;6124341;23;20025;-83
2022/03/05 07:01:25;;;;;;;17.90;10.05;;;-2.80;99.90;;;;;;6100587;23;20013;-83
2022/03/05 07:03:51;;;;;;;19.33;9.63;;;-2.80;99.90;;;;;;6076657;23;20025;-84
2022/03/05 07:06:16;;;;;;;24.33;11.70;;;-2.80;99.90;;;;;;6099891;23;20033;-82
2022/03/05 07:08:42;;;;;;;21.92;13.15;;;-2.80;99.90;;;;;;6124848;23;20018;-83
2022/03/05 07:11:08;;;;;;;23.20;12.52;;;-2.80;99.90;;;;;;6100082;23;20086;-82
2022/03/05 07:13:36;;;;;;;20.55;10.00;;;-2.80;99.90;;;;;;6148665;23;20356;-84
2022/03/05 07:16:02;;;;;;;19.67;9.50;;;-2.70;99.90;;;;;;6124162;23;20385;-83
2022/03/05 07:18:28;;;;;;;22.48;10.07;;;-2.60;99.90;;;;;;6100929;23;20082;-83
2022/03/05 07:20:53;;;;;;;17.80;9.50;;;-2.60;99.90;;;;;;6100014;23;20026;-85
2022/03/05 07:23:19;;;;;;;20.40;9.52;;;-2.50;99.90;;;;;;6148784;23;20791;-84
2022/03/05 07:25:45;;;;;;;21.63;9.65;;;-2.40;99.90;;;;;;6123060;23;20024;-82
2022/03/05 07:28:11;;;;;;;19.58;9.75;;;-2.40;99.90;;;;;;6100204;23;20029;-82
2022/03/05 07:30:38;;;;;;;21.75;10.15;;;-2.30;99.90;;;;;;6149585;23;20014;-83
2022/03/05 07:33:05;;;;;;;21.65;10.25;;;-2.20;99.90;;;;;;6148973;23;20460;-83
2022/03/05 07:35:30;;;;;;;20.08;9.80;;;-2.10;99.90;;;;;;6149168;23;20021;-83
2022/03/05 07:37:56;;;;;;;20.35;10.32;;;-2.00;99.90;;;;;;6149214;23;20013;-86
2022/03/05 07:40:22;;;;;;;19.83;9.70;;;-1.90;99.90;;;;;;6100191;23;20030;-84
2022/03/05 07:42:47;;;;;;;18.02;8.95;;;-1.80;99.90;;;;;;6100670;23;20021;-83
2022/03/05 07:45:13;;;;;;;23.50;10.73;;;-1.70;99.90;;;;;;6099837;23;20018;-82
2022/03/05 07:47:39;;;;;;;21.23;10.32;;;-1.60;99.90;;;;;;6124831;23;20053;-83
2022/03/05 07:50:05;;;;;;;22.48;10.13;;;-1.50;99.90;;;;;;6075890;23;20013;-83
2022/03/05 07:52:31;;;;;;;17.48;9.73;;;-1.40;99.90;;;;;;6124053;23;20022;-82
2022/03/05 07:54:57;;;;;;;21.23;9.95;;;-1.40;99.90;;;;;;6100408;23;20104;-85
2022/03/05 07:57:22;;;;;;;17.42;9.57;;;-1.30;99.90;;;;;;6148565;23;20049;-87
2022/03/05 07:59:48;;;;;;;21.00;10.70;;;-1.30;99.90;;;;;;6126246;23;20525;-86
2022/03/05 08:02:15;;;;;;;19.77;9.88;;;-1.10;99.90;;;;;;6099080;23;20022;-87
2022/03/05 08:04:44;;;;;;;20.58;10.23;;;-1.10;99.90;;;;;;6109188;23;20029;-85
2022/03/05 08:07:12;;;;;;;21.98;10.73;;;-1.10;99.90;;;;;;6125763;23;20018;-86
2022/03/05 08:09:38;;;;;;;20.90;10.15;;;-1.00;99.90;;;;;;6101617;23;20049;-85
2022/03/05 08:12:04;;;;;;;21.00;10.70;;;-0.80;99.90;;;;;;6099919;23;20100;-86
2022/03/05 08:14:30;;;;;;;25.95;11.25;;;-0.90;99.90;;;;;;6123249;23;20045;-84
2022/03/05 08:16:56;;;;;;;20.20;10.70;;;-0.80;99.90;;;;;;6124597;23;20076;-80
2022/03/05 08:19:22;;;;;;;19.75;10.70;;;-0.70;99.90;;;;;;6099813;23;20044;-83
2022/03/05 08:21:47;;;;;;;21.42;10.38;;;-0.60;99.90;;;;;;6148511;23;20017;-81
2022/03/05 08:24:13;;;;;;;20.33;10.32;;;-0.60;99.90;;;;;;6099758;23;20018;-82
2022/03/05 08:26:38;;;;;;;20.48;10.57;;;-0.50;99.90;;;;;;6150397;23;20022;-82
2022/03/05 08:29:05;;;;;;;20.98;10.75;;;-0.40;99.90;;;;;;6125448;23;20029;-81
2022/03/05 08:31:31;;;;;;;20.85;10.93;;;-0.40;99.90;;;;;;6150269;23;20047;-83
2022/03/05 08:33:58;;;;;;;21.77;10.77;;;-0.30;99.90;;;;;;6126289;23;20025;-82
2022/03/05 08:36:24;;;;;;;23.38;11.00;;;-0.30;99.90;;;;;;6100752;23;20085;-82
2022/03/05 08:38:50;;;;;;;23.40;11.45;;;-0.20;99.90;;;;;;6101678;23;20326;-81
2022/03/05 08:41:16;;;;;;;22.13;11.23;;;-0.10;99.90;;;;;;6150002;23;20072;-81
2022/03/05 08:43:45;;;;;;;20.88;10.80;;;-0.10;99.90;;;;;;6125865;23;20100;-83
2022/03/05 08:46:10;;;;;;;25.08;11.00;;;0.00;99.90;;;;;;6125446;23;20018;-82
2022/03/05 08:48:36;;;;;;;23.48;10.85;;;0.10;99.90;;;;;;6149986;23;20377;-83
2022/03/05 08:51:02;;;;;;;22.38;11.10;;;0.20;99.90;;;;;;6101445;23;20029;-85
2022/03/05 08:53:28;;;;;;;21.40;11.43;;;0.30;99.90;;;;;;6101094;23;20017;-82
2022/03/05 08:55:54;;;;;;;26.90;13.10;;;0.30;99.90;;;;;;6149980;23;20084;-85
2022/03/05 08:58:20;;;;;;;21.60;11.13;;;0.40;99.90;;;;;;6100791;23;20018;-83
2022/03/05 09:00:47;;;;;;;23.17;11.55;;;0.40;99.90;;;;;;6150568;23;20042;-83
2022/03/05 09:03:13;;;;;;;22.02;11.63;;;0.50;99.90;;;;;;6101316;23;20025;-83
2022/03/05 09:05:39;;;;;;;23.80;11.98;;;0.60;99.90;;;;;;6150766;23;20037;-82
2022/03/05 09:08:04;;;;;;;23.23;11.65;;;0.60;99.90;;;;;;6077289;23;20052;-83
2022/03/05 09:10:30;;;;;;;28.10;12.35;;;0.70;99.90;;;;;;6125956;23;20053;-82
2022/03/05 09:12:56;;;;;;;21.42;11.48;;;0.70;99.90;;;;;;6101488;23;20013;-83
2022/03/05 09:15:22;;;;;;;26.23;12.30;;;0.90;99.90;;;;;;6125694;23;20060;-83
2022/03/05 09:17:47;;;;;;;25.80;12.50;;;0.90;99.90;;;;;;6126140;23;20021;-83
2022/03/05 09:20:14;;;;;;;26.02;12.88;;;1.00;99.90;;;;;;6150092;23;20029;-83
2022/03/05 09:22:40;;;;;;;26.40;13.27;;;1.10;99.90;;;;;;6101846;23;20331;-83
2022/03/05 09:25:06;;;;;;;28.52;14.00;;;1.10;99.90;;;;;;6101325;23;20520;-83
2022/03/05 09:27:33;;;;;;;25.30;12.65;;;1.20;99.90;;;;;;6101606;23;20449;-83
2022/03/05 09:29:59;;;;;;;23.45;13.20;;;1.20;99.90;;;;;;6101909;23;20018;-84
2022/03/05 09:32:26;;;;;;;27.33;14.20;;;1.30;99.90;;;;;;6150004;23;20079;-83
2022/03/05 09:34:51;;;;;;;27.08;12.70;;;1.50;99.90;;;;;;6126152;23;20025;-83
2022/03/05 09:37:17;;;;;;;24.05;13.13;;;1.50;99.90;;;;;;6149539;23;20032;-83
2022/03/05 09:39:43;;;;;;;28.90;12.95;;;1.60;99.90;;;;;;6126089;23;20099;-83
2022/03/05 09:42:09;;;;;;;28.73;14.45;;;1.70;99.90;;;;;;6077357;23;20044;-83
2022/03/05 09:44:38;;;;;;;24.92;12.93;;;1.70;99.90;;;;;;6125824;23;20092;-84
2022/03/05 09:47:06;;;;;;;27.35;13.77;;;1.80;99.90;;;;;;6079065;23;20072;-84
2022/03/05 09:49:37;;;;;;;27.27;13.55;;;1.90;99.90;;;;;;6125759;23;20021;-84
2022/03/05 09:52:04;;;;;;;26.98;13.02;;;2.00;99.90;;;;;;6126219;23;20056;-83
2022/03/05 09:54:30;;;;;;;29.35;13.68;;;2.10;99.90;;;;;;6125633;23;20072;-84
2022/03/05 09:56:55;;;;;;;25.65;13.98;;;2.20;99.90;;;;;;6150429;23;20018;-83
2022/03/05 09:59:21;;;;;;;24.80;13.35;;;2.30;99.90;;;;;;6101084;23;20480;-84
2022/03/05 10:01:48;;;;;;;28.50;13.75;;;2.50;99.90;;;;;;6150350;23;20013;-82
2022/03/05 10:04:24;;;;;;;27.05;13.57;;;2.60;99.90;;;;;;6100770;23;20282;-84
2022/03/05 10:07:09;;;;;;;26.40;13.75;;;2.90;99.90;;;;;;6125808;23;20068;-84
2022/03/05 10:09:35;;;;;;;29.40;13.25;;;3.00;99.90;;;;;;6125637;23;20043;-83
2022/03/05 10:12:02;;;;;;;23.52;11.73;;;3.20;99.90;;;;;;6125925;23;20014;-84
2022/03/05 10:14:27;;;;;;;24.67;13.13;;;3.20;99.90;;;;;;6149769;23;20496;-83
2022/03/05 10:17:01;;;;;;;27.05;13.25;;;3.30;99.90;;;;;;6101300;23;20017;-83
2022/03/05 10:19:27;;;;;;;28.02;13.80;;;3.40;99.90;;;;;;6125299;23;20018;-83
2022/03/05 10:21:59;;;;;;;29.88;14.07;;;3.50;99.90;;;;;;6150447;23;20040;-84
2022/03/05 10:24:36;;;;;;;24.52;12.68;;;3.60;99.90;;;;;;6149769;23;20318;-83
2022/03/05 10:27:03;;;;;;;24.38;12.88;;;3.70;99.90;;;;;;6126044;23;20028;-83
2022/03/05 10:29:35;;;;;;;27.45;14.63;;;3.80;99.90;;;;;;6149699;23;20028;-83
2022/03/05 10:32:09;;;;;;;29.15;13.43;;;3.90;99.90;;;;;;6125953;23;20029;-85
2022/03/05 10:34:56;;;;;;;26.45;13.95;;;3.90;99.90;;;;;;6150282;23;20013;-84
2022/03/05 10:37:23;;;;;;;25.60;13.52;;;4.20;99.90;;;;;;6150018;23;20108;-83
2022/03/05 10:39:51;;;;;;;27.52;14.07;;;4.20;99.90;;;;;;6150516;23;20014;-83
2022/03/05 10:42:24;;;;;;;25.30;13.23;;;4.30;99.90;;;;;;6101281;23;20032;-83
2022/03/05 10:45:02;;;;;;;27.33;12.85;;;4.40;99.70;;;;;;6150619;23;20505;-83
2022/03/05 10:47:43;;;;;;;24.55;13.40;;;4.50;98.20;;;;;;6149306;23;20087;-83
2022/03/05 10:50:15;;;;;;;26.05;13.40;;;4.70;98.40;;;;;;6149862;23;20020;-86
2022/03/05 10:52:55;;;;;;;26.05;13.88;;;4.80;97.40;;;;;;6150336;23;20080;-83
2022/03/05 10:55:23;;;;;;;26.20;13.85;;;4.80;96.90;;;;;;6125226;23;20021;-83
2022/03/05 10:57:55;;;;;;;25.33;13.60;;;4.90;97.00;;;;;;6125812;23;20080;-83
2022/03/05 11:00:21;;;;;;;23.90;13.10;;;5.00;96.20;;;;;;6125100;23;20014;-84
2022/03/05 11:02:49;;;;;;;27.55;14.77;;;5.20;96.30;;;;;;6126038;23;20525;-84
2022/03/05 11:05:16;;;;;;;29.02;14.35;;;5.20;95.90;;;;;;6149620;23;20109;-84
2022/03/05 11:07:43;;;;;;;30.00;14.68;;;5.20;95.10;;;;;;6125871;23;20028;-83
2022/03/05 11:10:09;;;;;;;27.05;13.23;;;5.30;95.30;;;;;;6125227;23;20014;-84
2022/03/05 11:12:39;;;;;;;27.55;14.57;;;5.40;95.00;;;;;;6100619;23;20104;-84
2022/03/05 11:15:10;;;;;;;27.52;14.07;;;5.70;94.90;;;;;;6148998;23;20013;-84
2022/03/05 11:17:36;;;;;;;25.83;14.27;;;5.90;94.20;;;;;;6124934;23;20087;-82
2022/03/05 11:20:03;;;;;;;31.13;14.73;;;6.00;93.90;;;;;;6100976;23;20037;-81
2022/03/05 11:22:29;;;;;;;25.42;13.52;;;6.20;93.60;;;;;;6124372;23;20025;-79
2022/03/05 13:26:24;;;;;;;29.75;15.07;;;16.00;53.00;;;;;;4989352;27;4701426;-89
2022/03/05 13:28:51;;;;;;;26.23;14.52;;;16.40;60.80;;;;;;5117447;27;20185;-87
2022/03/05 13:31:17;;;;;;;25.85;15.60;;;16.80;56.80;;;;;;5093611;27;21783;-86
2022/03/05 13:33:52;;;;;;;23.60;14.57;;;17.00;55.50;;;;;;5076113;28;20135;-87
2022/03/05 13:36:38;;;;;;;23.33;14.50;;;17.20;51.30;;;;;;5090475;28;20043;-85
2022/03/05 13:39:14;;;;;;;26.80;15.27;;;17.50;48.10;;;;;;5113067;28;20082;-86
2022/03/05 13:41:50;;;;;;;;;;;17.60;47.00;;;;;;5097279;28;20305;-86
2022/03/05 13:44:32;;;;;;;28.20;16.23;;;17.70;46.30;;;;;;5090724;28;19927;-86
2022/03/05 13:47:00;;;;;;;22.35;14.85;;;17.80;50.60;;;;;;5100862;28;20366;-89
2022/03/05 13:49:28;;;;;;;25.83;16.08;;;18.00;49.80;;;;;;5109286;28;20096;-84
2022/03/05 13:51:58;;;;;;;26.60;16.60;;;17.90;48.30;;;;;;5106880;28;20189;-84
2022/03/05 13:54:34;;;;;;;26.38;16.27;;;17.90;46.90;;;;;;5087400;28;20058;-90
2022/03/05 13:57:01;;;;;;;24.73;15.68;;;18.10;44.80;;;;;;5090262;28;20047;-85
2022/03/05 13:59:40;;;;;;;24.48;16.52;;;18.50;46.00;;;;;;5063004;28;20096;-85
2022/03/05 14:02:06;;;;;;;24.52;16.80;;;18.70;41.30;;;;;;5073279;28;20046;-85
2022/03/05 14:04:32;;;;;;;30.70;20.25;;;18.70;43.40;;;;;;5086397;28;20492;-86
2022/03/05 14:07:03;;;;;;;28.08;18.67;;;18.60;43.30;;;;;;5089108;28;20054;-85
2022/03/05 14:09:37;;;;;;;24.85;16.92;;;18.80;42.90;;;;;;5091888;28;20039;-83
2022/03/05 14:12:13;;;;;;;25.73;16.10;;;19.00;41.30;;;;;;5091572;28;20047;-84
2022/03/05 14:14:42;;;;;;;;;;;19.00;42.60;;;;;;5107079;28;20051;-84
2022/03/05 14:17:21;;;;;;;24.42;17.15;;;18.70;37.90;;;;;;5108602;28;21624;-84
2022/03/05 14:19:47;;;;;;;27.13;17.05;;;18.60;44.60;;;;;;5091260;28;20112;-85
2022/03/05 14:22:13;;;;;;;23.85;16.38;;;18.50;43.60;;;;;;5084562;28;20043;-83
2022/03/05 14:24:40;;;;;;;23.80;15.68;;;18.20;43.50;;;;;;5097117;28;20138;-84
2022/03/05 14:27:15;;;;;;;25.23;17.02;;;18.00;42.90;;;;;;5092024;28;20460;-85
2022/03/05 14:29:42;;;;;;;24.38;17.27;;;17.60;42.00;;;;;;5090078;28;20487;-83
2022/03/05 14:32:09;;;;;;;25.40;16.45;;;17.10;43.60;;;;;;5106401;28;20055;-83
2022/03/05 14:34:35;;;;;;;23.13;15.95;;;16.60;44.30;;;;;;5090813;28;20069;-85
2022/03/05 14:37:02;;;;;;;24.30;16.38;;;16.20;44.90;;;;;;5100117;28;20070;-86
2022/03/05 14:39:28;;;;;;;25.08;16.55;;;15.50;45.50;;;;;;5094351;28;20498;-86